sensor_id;sensor_type;location;lat;lon;timestamp;temperature;humidity
4578;DHT22;2301;47.354;8.528;2022-09-03T00:00:34;22.20;71.10
4578;DHT22;2301;47.354;8.528;2022-09-03T00:03:09;22.20;71.20
4578;DHT22;2301;47.354;8.528;2022-09-03T00:05:42;22.10;71.00
4578;DHT22;2301;47.354;8.528;2022-09-03T00:08:14;22.10;71.10
4578;DHT22;2301;47.354;8.528;2022-09-03T00:10:48;22.10;71.20
4578;DHT22;2301;47.354;8.528;2022-09-03T00:13:22;22.10;71.20
4578;DHT22;2301;47.354;8.528;2022-09-03T00:15:50;22.10;71.20
4578;DHT22;2301;47.354;8.528;2022-09-03T00:18:23;22.10;71.20
4578;DHT22;2301;47.354;8.528;2022-09-03T00:20:56;22.00;71.00
4578;DHT22;2301;47.354;8.528;2022-09-03T00:23:26;21.90;71.00
4578;DHT22;2301;47.354;8.528;2022-09-03T00:25:57;21.90;71.00
4578;DHT22;2301;47.354;8.528;2022-09-03T00:28:32;21.90;71.20
4578;DHT22;2301;47.354;8.528;2022-09-03T00:31:08;21.90;71.70
4578;DHT22;2301;47.354;8.528;2022-09-03T00:33:39;21.90;71.60
4578;DHT22;2301;47.354;8.528;2022-09-03T00:36:13;22.00;71.70
4578;DHT22;2301;47.354;8.528;2022-09-03T00:38:41;22.00;71.60
4578;DHT22;2301;47.354;8.528;2022-09-03T00:41:13;22.10;71.50
4578;DHT22;2301;47.354;8.528;2022-09-03T00:43:54;22.10;71.60
4578;DHT22;2301;47.354;8.528;2022-09-03T00:46:30;22.10;71.60
4578;DHT22;2301;47.354;8.528;2022-09-03T00:49:19;22.10;71.90
4578;DHT22;2301;47.354;8.528;2022-09-03T00:51:52;22.10;72.20
4578;DHT22;2301;47.354;8.528;2022-09-03T00:54:30;22.00;72.40
4578;DHT22;2301;47.354;8.528;2022-09-03T00:57:16;22.00;72.70
4578;DHT22;2301;47.354;8.528;2022-09-03T00:59:56;22.00;72.60
4578;DHT22;2301;47.354;8.528;2022-09-03T01:02:34;22.00;72.70
4578;DHT22;2301;47.354;8.528;2022-09-03T01:05:10;22.00;73.00
4578;DHT22;2301;47.354;8.528;2022-09-03T01:07:48;21.90;73.40
4578;DHT22;2301;47.354;8.528;2022-09-03T01:10:24;21.90;73.70
4578;DHT22;2301;47.354;8.528;2022-09-03T01:13:02;21.90;73.70
4578;DHT22;2301;47.354;8.528;2022-09-03T01:15:38;22.00;73.70
4578;DHT22;2301;47.354;8.528;2022-09-03T01:18:16;22.00;73.50
4578;DHT22;2301;47.354;8.528;2022-09-03T01:20:57;22.10;73.60
4578;DHT22;2301;47.354;8.528;2022-09-03T01:23:53;22.10;74.40
4578;DHT22;2301;47.354;8.528;2022-09-03T01:26:39;22.20;73.90
4578;DHT22;2301;47.354;8.528;2022-09-03T01:29:18;22.10;73.50
4578;DHT22;2301;47.354;8.528;2022-09-03T01:31:56;22.10;73.50
4578;DHT22;2301;47.354;8.528;2022-09-03T01:34:34;22.10;73.60
4578;DHT22;2301;47.354;8.528;2022-09-03T01:37:13;22.10;73.90
4578;DHT22;2301;47.354;8.528;2022-09-03T01:39:48;22.20;73.70
4578;DHT22;2301;47.354;8.528;2022-09-03T01:42:22;22.20;73.60
4578;DHT22;2301;47.354;8.528;2022-09-03T01:45:01;22.20;73.60
4578;DHT22;2301;47.354;8.528;2022-09-03T01:47:39;22.20;73.60
4578;DHT22;2301;47.354;8.528;2022-09-03T01:50:16;22.20;73.80
4578;DHT22;2301;47.354;8.528;2022-09-03T01:52:51;22.20;73.90
4578;DHT22;2301;47.354;8.528;2022-09-03T01:55:29;22.20;74.10
4578;DHT22;2301;47.354;8.528;2022-09-03T01:58:01;22.20;73.90
4578;DHT22;2301;47.354;8.528;2022-09-03T02:00:35;22.20;73.90
4578;DHT22;2301;47.354;8.528;2022-09-03T02:03:05;22.20;73.90
4578;DHT22;2301;47.354;8.528;2022-09-03T02:05:33;22.20;73.90
4578;DHT22;2301;47.354;8.528;2022-09-03T02:08:02;22.20;74.00
4578;DHT22;2301;47.354;8.528;2022-09-03T02:10:32;22.20;73.80
4578;DHT22;2301;47.354;8.528;2022-09-03T02:13:05;22.20;73.80
4578;DHT22;2301;47.354;8.528;2022-09-03T02:15:35;22.20;73.90
4578;DHT22;2301;47.354;8.528;2022-09-03T02:18:05;22.20;73.80
4578;DHT22;2301;47.354;8.528;2022-09-03T02:20:33;22.20;73.80
4578;DHT22;2301;47.354;8.528;2022-09-03T02:23:01;22.10;73.70
4578;DHT22;2301;47.354;8.528;2022-09-03T02:25:33;22.10;74.00
4578;DHT22;2301;47.354;8.528;2022-09-03T02:28:03;22.10;74.20
4578;DHT22;2301;47.354;8.528;2022-09-03T02:30:31;22.10;74.20
4578;DHT22;2301;47.354;8.528;2022-09-03T02:33:00;22.10;74.00
4578;DHT22;2301;47.354;8.528;2022-09-03T02:35:27;22.10;74.70
4578;DHT22;2301;47.354;8.528;2022-09-03T02:37:54;22.10;73.90
4578;DHT22;2301;47.354;8.528;2022-09-03T02:40:21;22.10;73.90
4578;DHT22;2301;47.354;8.528;2022-09-03T02:42:48;22.10;73.90
4578;DHT22;2301;47.354;8.528;2022-09-03T02:45:23;22.10;73.80
4578;DHT22;2301;47.354;8.528;2022-09-03T02:47:54;22.10;73.90
4578;DHT22;2301;47.354;8.528;2022-09-03T02:50:25;22.00;74.00
4578;DHT22;2301;47.354;8.528;2022-09-03T02:52:52;22.10;74.00
4578;DHT22;2301;47.354;8.528;2022-09-03T02:55:19;22.10;73.80
4578;DHT22;2301;47.354;8.528;2022-09-03T02:57:46;22.10;73.80
4578;DHT22;2301;47.354;8.528;2022-09-03T03:00:13;22.00;73.70
4578;DHT22;2301;47.354;8.528;2022-09-03T03:02:40;22.00;73.60
4578;DHT22;2301;47.354;8.528;2022-09-03T03:05:09;22.10;73.60
4578;DHT22;2301;47.354;8.528;2022-09-03T03:07:41;22.10;73.50
4578;DHT22;2301;47.354;8.528;2022-09-03T03:10:09;22.10;73.50
4578;DHT22;2301;47.354;8.528;2022-09-03T03:12:37;22.00;73.30
4578;DHT22;2301;47.354;8.528;2022-09-03T03:15:05;22.00;73.40
4578;DHT22;2301;47.354;8.528;2022-09-03T03:17:32;22.00;73.50
4578;DHT22;2301;47.354;8.528;2022-09-03T03:19:59;21.90;73.60
4578;DHT22;2301;47.354;8.528;2022-09-03T03:22:26;21.70;74.20
4578;DHT22;2301;47.354;8.528;2022-09-03T03:24:55;21.40;75.00
4578;DHT22;2301;47.354;8.528;2022-09-03T03:27:22;21.20;75.90
4578;DHT22;2301;47.354;8.528;2022-09-03T03:29:49;21.00;76.80
4578;DHT22;2301;47.354;8.528;2022-09-03T03:32:16;20.90;77.80
4578;DHT22;2301;47.354;8.528;2022-09-03T03:34:43;20.70;78.20
4578;DHT22;2301;47.354;8.528;2022-09-03T03:37:10;20.70;78.60
4578;DHT22;2301;47.354;8.528;2022-09-03T03:39:37;20.60;79.20
4578;DHT22;2301;47.354;8.528;2022-09-03T03:42:06;20.50;79.90
4578;DHT22;2301;47.354;8.528;2022-09-03T03:44:34;20.40;80.00
4578;DHT22;2301;47.354;8.528;2022-09-03T03:47:02;20.30;80.50
4578;DHT22;2301;47.354;8.528;2022-09-03T03:49:30;20.20;80.90
4578;DHT22;2301;47.354;8.528;2022-09-03T03:51:57;20.20;81.20
4578;DHT22;2301;47.354;8.528;2022-09-03T03:54:24;20.10;81.40
4578;DHT22;2301;47.354;8.528;2022-09-03T03:56:51;20.10;82.10
4578;DHT22;2301;47.354;8.528;2022-09-03T03:59:20;20.00;82.20
4578;DHT22;2301;47.354;8.528;2022-09-03T04:01:47;20.00;82.00
4578;DHT22;2301;47.354;8.528;2022-09-03T04:04:15;19.90;81.60
4578;DHT22;2301;47.354;8.528;2022-09-03T04:06:42;19.80;81.50
4578;DHT22;2301;47.354;8.528;2022-09-03T04:09:09;19.80;81.50
4578;DHT22;2301;47.354;8.528;2022-09-03T04:11:37;19.70;81.90
4578;DHT22;2301;47.354;8.528;2022-09-03T04:14:04;19.70;82.60
4578;DHT22;2301;47.354;8.528;2022-09-03T04:16:32;19.70;82.90
4578;DHT22;2301;47.354;8.528;2022-09-03T04:19:00;19.70;83.00
4578;DHT22;2301;47.354;8.528;2022-09-03T04:21:29;19.60;82.70
4578;DHT22;2301;47.354;8.528;2022-09-03T04:23:56;19.50;82.80
4578;DHT22;2301;47.354;8.528;2022-09-03T04:26:26;19.50;80.80
4578;DHT22;2301;47.354;8.528;2022-09-03T04:28:56;19.50;80.90
4578;DHT22;2301;47.354;8.528;2022-09-03T04:31:23;19.50;81.20
4578;DHT22;2301;47.354;8.528;2022-09-03T04:33:52;19.50;81.90
4578;DHT22;2301;47.354;8.528;2022-09-03T04:36:21;19.50;82.80
4578;DHT22;2301;47.354;8.528;2022-09-03T04:38:49;19.40;83.10
4578;DHT22;2301;47.354;8.528;2022-09-03T04:41:19;19.40;83.80
4578;DHT22;2301;47.354;8.528;2022-09-03T04:43:46;19.40;83.40
4578;DHT22;2301;47.354;8.528;2022-09-03T04:46:14;19.40;82.60
4578;DHT22;2301;47.354;8.528;2022-09-03T04:48:42;19.40;81.00
4578;DHT22;2301;47.354;8.528;2022-09-03T04:51:12;19.40;80.60
4578;DHT22;2301;47.354;8.528;2022-09-03T04:53:41;19.40;80.30
4578;DHT22;2301;47.354;8.528;2022-09-03T04:56:12;19.40;80.20
4578;DHT22;2301;47.354;8.528;2022-09-03T04:58:39;19.40;80.50
4578;DHT22;2301;47.354;8.528;2022-09-03T05:01:09;19.40;81.40
4578;DHT22;2301;47.354;8.528;2022-09-03T05:03:36;19.40;81.80
4578;DHT22;2301;47.354;8.528;2022-09-03T05:06:03;19.40;81.50
4578;DHT22;2301;47.354;8.528;2022-09-03T05:08:33;19.40;81.90
4578;DHT22;2301;47.354;8.528;2022-09-03T05:11:02;19.40;82.00
4578;DHT22;2301;47.354;8.528;2022-09-03T05:13:29;19.30;81.80
4578;DHT22;2301;47.354;8.528;2022-09-03T05:15:58;19.30;81.90
4578;DHT22;2301;47.354;8.528;2022-09-03T05:18:26;19.30;82.60
4578;DHT22;2301;47.354;8.528;2022-09-03T05:20:57;19.30;82.90
4578;DHT22;2301;47.354;8.528;2022-09-03T05:23:25;19.20;83.00
4578;DHT22;2301;47.354;8.528;2022-09-03T05:25:58;19.20;83.10
4578;DHT22;2301;47.354;8.528;2022-09-03T05:28:25;19.20;83.50
4578;DHT22;2301;47.354;8.528;2022-09-03T05:30:59;19.20;82.80
4578;DHT22;2301;47.354;8.528;2022-09-03T05:33:26;19.20;82.70
4578;DHT22;2301;47.354;8.528;2022-09-03T05:35:53;19.20;81.50
4578;DHT22;2301;47.354;8.528;2022-09-03T05:38:20;19.10;81.50
4578;DHT22;2301;47.354;8.528;2022-09-03T05:40:48;19.20;81.30
4578;DHT22;2301;47.354;8.528;2022-09-03T05:43:16;19.20;82.40
4578;DHT22;2301;47.354;8.528;2022-09-03T05:45:43;19.20;81.40
4578;DHT22;2301;47.354;8.528;2022-09-03T05:48:10;19.20;81.90
4578;DHT22;2301;47.354;8.528;2022-09-03T05:50:37;19.20;82.40
4578;DHT22;2301;47.354;8.528;2022-09-03T05:53:04;19.20;82.30
4578;DHT22;2301;47.354;8.528;2022-09-03T05:55:31;19.20;82.30
4578;DHT22;2301;47.354;8.528;2022-09-03T05:58:00;19.20;82.40
4578;DHT22;2301;47.354;8.528;2022-09-03T06:00:28;19.20;82.30
4578;DHT22;2301;47.354;8.528;2022-09-03T06:02:55;19.20;83.00
4578;DHT22;2301;47.354;8.528;2022-09-03T06:05:22;19.10;83.80
4578;DHT22;2301;47.354;8.528;2022-09-03T06:07:50;19.10;84.50
4578;DHT22;2301;47.354;8.528;2022-09-03T06:10:17;19.20;84.80
4578;DHT22;2301;47.354;8.528;2022-09-03T06:12:44;19.20;85.30
4578;DHT22;2301;47.354;8.528;2022-09-03T06:15:14;19.20;85.70
4578;DHT22;2301;47.354;8.528;2022-09-03T06:17:43;19.20;86.10
4578;DHT22;2301;47.354;8.528;2022-09-03T06:20:10;19.20;86.30
4578;DHT22;2301;47.354;8.528;2022-09-03T06:22:37;19.30;86.40
4578;DHT22;2301;47.354;8.528;2022-09-03T06:25:04;19.20;86.30
4578;DHT22;2301;47.354;8.528;2022-09-03T06:27:32;19.20;86.70
4578;DHT22;2301;47.354;8.528;2022-09-03T06:29:59;19.30;86.90
4578;DHT22;2301;47.354;8.528;2022-09-03T06:32:26;19.20;87.10
4578;DHT22;2301;47.354;8.528;2022-09-03T06:34:55;19.20;87.20
4578;DHT22;2301;47.354;8.528;2022-09-03T06:37:22;19.20;87.20
4578;DHT22;2301;47.354;8.528;2022-09-03T06:39:49;19.30;87.50
4578;DHT22;2301;47.354;8.528;2022-09-03T06:42:16;19.30;87.90
4578;DHT22;2301;47.354;8.528;2022-09-03T06:44:43;19.30;87.90
4578;DHT22;2301;47.354;8.528;2022-09-03T06:47:10;19.40;87.70
4578;DHT22;2301;47.354;8.528;2022-09-03T06:49:37;19.50;88.40
4578;DHT22;2301;47.354;8.528;2022-09-03T06:52:06;19.70;88.50
4578;DHT22;2301;47.354;8.528;2022-09-03T06:54:32;19.80;88.00
4578;DHT22;2301;47.354;8.528;2022-09-03T06:56:59;19.80;87.40
4578;DHT22;2301;47.354;8.528;2022-09-03T06:59:26;19.80;86.60
4578;DHT22;2301;47.354;8.528;2022-09-03T07:01:53;19.90;86.80
4578;DHT22;2301;47.354;8.528;2022-09-03T07:04:22;20.00;87.10
4578;DHT22;2301;47.354;8.528;2022-09-03T07:06:51;20.20;87.60
4578;DHT22;2301;47.354;8.528;2022-09-03T07:09:20;20.40;87.20
4578;DHT22;2301;47.354;8.528;2022-09-03T07:11:47;20.60;87.20
4578;DHT22;2301;47.354;8.528;2022-09-03T07:14:15;20.90;86.30
4578;DHT22;2301;47.354;8.528;2022-09-03T07:16:42;21.30;86.00
4578;DHT22;2301;47.354;8.528;2022-09-03T07:19:10;21.90;83.00
4578;DHT22;2301;47.354;8.528;2022-09-03T07:21:38;22.70;80.20
4578;DHT22;2301;47.354;8.528;2022-09-03T07:24:07;23.40;77.40
4578;DHT22;2301;47.354;8.528;2022-09-03T07:26:38;23.90;75.00
4578;DHT22;2301;47.354;8.528;2022-09-03T07:29:06;24.40;73.10
4578;DHT22;2301;47.354;8.528;2022-09-03T07:31:34;24.70;71.30
4578;DHT22;2301;47.354;8.528;2022-09-03T07:34:03;25.10;70.60
4578;DHT22;2301;47.354;8.528;2022-09-03T07:36:34;25.40;68.80
4578;DHT22;2301;47.354;8.528;2022-09-03T07:39:03;25.60;67.30
4578;DHT22;2301;47.354;8.528;2022-09-03T07:41:30;25.90;66.20
4578;DHT22;2301;47.354;8.528;2022-09-03T07:43:59;26.10;65.30
4578;DHT22;2301;47.354;8.528;2022-09-03T07:46:31;26.10;64.60
4578;DHT22;2301;47.354;8.528;2022-09-03T07:48:59;26.00;65.20
4578;DHT22;2301;47.354;8.528;2022-09-03T07:51:28;26.00;65.20
4578;DHT22;2301;47.354;8.528;2022-09-03T07:53:58;26.00;64.90
4578;DHT22;2301;47.354;8.528;2022-09-03T07:56:25;26.00;64.30
4578;DHT22;2301;47.354;8.528;2022-09-03T07:58:56;26.20;64.00
4578;DHT22;2301;47.354;8.528;2022-09-03T08:01:26;26.30;63.30
4578;DHT22;2301;47.354;8.528;2022-09-03T08:03:56;26.60;64.70
4578;DHT22;2301;47.354;8.528;2022-09-03T08:06:24;26.60;62.80
4578;DHT22;2301;47.354;8.528;2022-09-03T08:08:54;26.50;62.30
4578;DHT22;2301;47.354;8.528;2022-09-03T08:11:24;26.10;62.40
4578;DHT22;2301;47.354;8.528;2022-09-03T08:13:55;25.90;62.90
4578;DHT22;2301;47.354;8.528;2022-09-03T08:16:28;25.80;64.00
4578;DHT22;2301;47.354;8.528;2022-09-03T08:18:55;25.80;64.50
4578;DHT22;2301;47.354;8.528;2022-09-03T08:21:22;25.90;65.10
4578;DHT22;2301;47.354;8.528;2022-09-03T08:23:51;26.30;65.20
4578;DHT22;2301;47.354;8.528;2022-09-03T08:26:20;26.70;64.10
4578;DHT22;2301;47.354;8.528;2022-09-03T08:28:47;27.10;63.30
4578;DHT22;2301;47.354;8.528;2022-09-03T08:31:16;27.30;61.90
4578;DHT22;2301;47.354;8.528;2022-09-03T08:33:46;27.50;61.80
4578;DHT22;2301;47.354;8.528;2022-09-03T08:36:15;27.70;61.70
4578;DHT22;2301;47.354;8.528;2022-09-03T08:38:44;27.90;60.90
4578;DHT22;2301;47.354;8.528;2022-09-03T08:41:13;28.10;60.60
4578;DHT22;2301;47.354;8.528;2022-09-03T08:44:02;28.40;59.10
4578;DHT22;2301;47.354;8.528;2022-09-03T08:46:40;28.70;57.50
4578;DHT22;2301;47.354;8.528;2022-09-03T08:49:13;28.80;57.60
4578;DHT22;2301;47.354;8.528;2022-09-03T08:51:42;28.90;56.80
4578;DHT22;2301;47.354;8.528;2022-09-03T08:54:12;28.90;56.50
4578;DHT22;2301;47.354;8.528;2022-09-03T08:56:40;29.10;57.10
4578;DHT22;2301;47.354;8.528;2022-09-03T08:59:09;29.00;56.80
4578;DHT22;2301;47.354;8.528;2022-09-03T09:01:44;29.00;56.10
4578;DHT22;2301;47.354;8.528;2022-09-03T09:04:29;29.10;56.00
4578;DHT22;2301;47.354;8.528;2022-09-03T09:07:05;29.20;55.50
4578;DHT22;2301;47.354;8.528;2022-09-03T09:09:41;29.10;55.60
4578;DHT22;2301;47.354;8.528;2022-09-03T09:12:24;28.80;54.60
4578;DHT22;2301;47.354;8.528;2022-09-03T09:15:06;28.50;54.90
4578;DHT22;2301;47.354;8.528;2022-09-03T09:17:47;28.10;56.60
4578;DHT22;2301;47.354;8.528;2022-09-03T09:20:25;27.90;57.00
4578;DHT22;2301;47.354;8.528;2022-09-03T09:22:56;27.60;58.80
4578;DHT22;2301;47.354;8.528;2022-09-03T09:25:26;27.40;59.60
4578;DHT22;2301;47.354;8.528;2022-09-03T09:27:59;27.10;59.60
4578;DHT22;2301;47.354;8.528;2022-09-03T09:30:27;27.00;59.50
4578;DHT22;2301;47.354;8.528;2022-09-03T09:32:54;26.80;59.60
4578;DHT22;2301;47.354;8.528;2022-09-03T09:35:23;26.60;60.20
4578;DHT22;2301;47.354;8.528;2022-09-03T09:37:52;26.40;60.20
4578;DHT22;2301;47.354;8.528;2022-09-03T09:40:27;26.20;60.00
4578;DHT22;2301;47.354;8.528;2022-09-03T09:43:09;25.90;60.40
4578;DHT22;2301;47.354;8.528;2022-09-03T09:45:37;25.70;61.10
4578;DHT22;2301;47.354;8.528;2022-09-03T09:48:09;25.50;60.80
4578;DHT22;2301;47.354;8.528;2022-09-03T09:50:40;25.20;60.70
4578;DHT22;2301;47.354;8.528;2022-09-03T09:53:09;25.00;61.50
4578;DHT22;2301;47.354;8.528;2022-09-03T09:55:51;24.90;61.90
4578;DHT22;2301;47.354;8.528;2022-09-03T09:58:20;24.80;61.30
4578;DHT22;2301;47.354;8.528;2022-09-03T10:01:00;24.60;61.40
4578;DHT22;2301;47.354;8.528;2022-09-03T10:03:31;24.50;63.50
4578;DHT22;2301;47.354;8.528;2022-09-03T10:06:08;24.40;63.00
4578;DHT22;2301;47.354;8.528;2022-09-03T10:09:05;24.20;61.10
4578;DHT22;2301;47.354;8.528;2022-09-03T10:11:33;24.10;62.20
4578;DHT22;2301;47.354;8.528;2022-09-03T10:14:02;23.90;62.40
4578;DHT22;2301;47.354;8.528;2022-09-03T10:16:34;23.80;64.00
4578;DHT22;2301;47.354;8.528;2022-09-03T10:19:04;23.70;63.40
4578;DHT22;2301;47.354;8.528;2022-09-03T10:21:42;23.60;62.60
4578;DHT22;2301;47.354;8.528;2022-09-03T10:24:29;23.60;62.60
4578;DHT22;2301;47.354;8.528;2022-09-03T10:26:59;23.40;60.80
4578;DHT22;2301;47.354;8.528;2022-09-03T10:29:26;23.40;62.60
4578;DHT22;2301;47.354;8.528;2022-09-03T10:32:02;23.30;64.70
4578;DHT22;2301;47.354;8.528;2022-09-03T10:34:37;23.40;63.70
4578;DHT22;2301;47.354;8.528;2022-09-03T10:37:17;23.30;63.20
4578;DHT22;2301;47.354;8.528;2022-09-03T10:40:00;23.30;63.60
4578;DHT22;2301;47.354;8.528;2022-09-03T10:42:38;23.20;62.60
4578;DHT22;2301;47.354;8.528;2022-09-03T10:45:17;23.10;63.00
4578;DHT22;2301;47.354;8.528;2022-09-03T10:48:07;23.00;63.90
4578;DHT22;2301;47.354;8.528;2022-09-03T10:50:45;22.90;64.30
4578;DHT22;2301;47.354;8.528;2022-09-03T10:53:25;22.90;64.70
4578;DHT22;2301;47.354;8.528;2022-09-03T10:56:00;22.90;65.10
4578;DHT22;2301;47.354;8.528;2022-09-03T10:58:47;22.80;66.60
4578;DHT22;2301;47.354;8.528;2022-09-03T11:01:20;22.80;67.80
4578;DHT22;2301;47.354;8.528;2022-09-03T11:03:58;22.80;68.90
4578;DHT22;2301;47.354;8.528;2022-09-03T11:06:41;22.80;69.70
4578;DHT22;2301;47.354;8.528;2022-09-03T11:09:19;22.80;69.70
4578;DHT22;2301;47.354;8.528;2022-09-03T11:11:51;22.70;70.80
4578;DHT22;2301;47.354;8.528;2022-09-03T11:14:29;22.70;70.70
4578;DHT22;2301;47.354;8.528;2022-09-03T11:17:03;22.70;70.10
4578;DHT22;2301;47.354;8.528;2022-09-03T11:19:35;22.70;68.50
4578;DHT22;2301;47.354;8.528;2022-09-03T11:22:03;22.70;69.00
4578;DHT22;2301;47.354;8.528;2022-09-03T11:24:34;22.70;70.00
4578;DHT22;2301;47.354;8.528;2022-09-03T11:27:14;22.70;69.80
4578;DHT22;2301;47.354;8.528;2022-09-03T11:29:50;22.70;68.90
4578;DHT22;2301;47.354;8.528;2022-09-03T11:32:23;22.70;68.80
4578;DHT22;2301;47.354;8.528;2022-09-03T11:34:52;22.70;69.80
4578;DHT22;2301;47.354;8.528;2022-09-03T11:37:21;22.70;70.10
4578;DHT22;2301;47.354;8.528;2022-09-03T11:39:56;22.80;70.50
4578;DHT22;2301;47.354;8.528;2022-09-03T11:42:29;22.90;71.50
4578;DHT22;2301;47.354;8.528;2022-09-03T11:45:11;22.90;69.70
4578;DHT22;2301;47.354;8.528;2022-09-03T11:47:41;23.00;70.20
4578;DHT22;2301;47.354;8.528;2022-09-03T11:50:17;23.30;71.60
4578;DHT22;2301;47.354;8.528;2022-09-03T11:52:45;23.60;71.00
4578;DHT22;2301;47.354;8.528;2022-09-03T11:55:25;23.60;69.80
4578;DHT22;2301;47.354;8.528;2022-09-03T11:57:58;23.70;70.60
4578;DHT22;2301;47.354;8.528;2022-09-03T12:00:25;23.60;69.20
4578;DHT22;2301;47.354;8.528;2022-09-03T12:02:56;23.60;69.50
4578;DHT22;2301;47.354;8.528;2022-09-03T12:05:30;23.60;69.20
4578;DHT22;2301;47.354;8.528;2022-09-03T12:08:27;23.70;67.60
4578;DHT22;2301;47.354;8.528;2022-09-03T12:11:19;23.90;67.10
4578;DHT22;2301;47.354;8.528;2022-09-03T12:13:57;24.00;67.10
4578;DHT22;2301;47.354;8.528;2022-09-03T12:16:45;24.30;68.30
4578;DHT22;2301;47.354;8.528;2022-09-03T12:19:23;24.40;65.70
4578;DHT22;2301;47.354;8.528;2022-09-03T12:21:53;24.60;65.40
4578;DHT22;2301;47.354;8.528;2022-09-03T12:24:21;24.80;65.50
4578;DHT22;2301;47.354;8.528;2022-09-03T12:26:49;25.00;63.40
4578;DHT22;2301;47.354;8.528;2022-09-03T12:29:22;25.00;63.00
4578;DHT22;2301;47.354;8.528;2022-09-03T12:31:50;25.10;62.40
4578;DHT22;2301;47.354;8.528;2022-09-03T12:34:19;25.20;62.60
4578;DHT22;2301;47.354;8.528;2022-09-03T12:36:48;25.40;62.50
4578;DHT22;2301;47.354;8.528;2022-09-03T12:39:17;25.40;61.70
4578;DHT22;2301;47.354;8.528;2022-09-03T12:42:02;25.30;62.10
4578;DHT22;2301;47.354;8.528;2022-09-03T12:44:31;25.30;62.20
4578;DHT22;2301;47.354;8.528;2022-09-03T12:47:08;25.30;61.60
4578;DHT22;2301;47.354;8.528;2022-09-03T12:49:37;25.20;61.70
4578;DHT22;2301;47.354;8.528;2022-09-03T12:52:11;25.10;61.20
4578;DHT22;2301;47.354;8.528;2022-09-03T12:54:45;25.00;61.70
4578;DHT22;2301;47.354;8.528;2022-09-03T12:57:18;24.90;61.50
4578;DHT22;2301;47.354;8.528;2022-09-03T12:59:47;24.80;62.40
4578;DHT22;2301;47.354;8.528;2022-09-03T13:02:17;24.70;62.30
4578;DHT22;2301;47.354;8.528;2022-09-03T13:04:46;24.70;61.90
4578;DHT22;2301;47.354;8.528;2022-09-03T13:07:19;24.70;62.00
4578;DHT22;2301;47.354;8.528;2022-09-03T13:09:48;24.70;62.30
4578;DHT22;2301;47.354;8.528;2022-09-03T13:12:28;24.90;61.90
4578;DHT22;2301;47.354;8.528;2022-09-03T13:14:56;25.00;62.50
4578;DHT22;2301;47.354;8.528;2022-09-03T13:17:37;25.10;61.50
4578;DHT22;2301;47.354;8.528;2022-09-03T13:20:28;25.10;60.80
4578;DHT22;2301;47.354;8.528;2022-09-03T13:23:12;25.00;62.00
4578;DHT22;2301;47.354;8.528;2022-09-03T13:25:50;25.00;61.70
4578;DHT22;2301;47.354;8.528;2022-09-03T13:28:30;25.00;62.60
4578;DHT22;2301;47.354;8.528;2022-09-03T13:31:03;25.00;62.20
4578;DHT22;2301;47.354;8.528;2022-09-03T13:33:38;25.00;62.40
4578;DHT22;2301;47.354;8.528;2022-09-03T13:36:12;25.00;62.00
4578;DHT22;2301;47.354;8.528;2022-09-03T13:38:48;25.00;62.60
4578;DHT22;2301;47.354;8.528;2022-09-03T13:41:17;25.10;62.70
4578;DHT22;2301;47.354;8.528;2022-09-03T13:43:59;25.30;62.40
4578;DHT22;2301;47.354;8.528;2022-09-03T13:46:33;25.30;62.10
4578;DHT22;2301;47.354;8.528;2022-09-03T13:49:10;25.40;61.80
4578;DHT22;2301;47.354;8.528;2022-09-03T13:52:00;25.50;62.20
4578;DHT22;2301;47.354;8.528;2022-09-03T13:54:33;25.50;62.30
4578;DHT22;2301;47.354;8.528;2022-09-03T13:57:03;25.40;62.60
4578;DHT22;2301;47.354;8.528;2022-09-03T13:59:41;25.30;62.60
4578;DHT22;2301;47.354;8.528;2022-09-03T14:02:19;25.30;62.40
4578;DHT22;2301;47.354;8.528;2022-09-03T14:05:04;25.20;62.80
4578;DHT22;2301;47.354;8.528;2022-09-03T14:07:47;25.20;63.10
4578;DHT22;2301;47.354;8.528;2022-09-03T14:10:22;25.20;62.80
4578;DHT22;2301;47.354;8.528;2022-09-03T14:13:01;25.20;62.90
4578;DHT22;2301;47.354;8.528;2022-09-03T14:15:39;25.10;62.80
4578;DHT22;2301;47.354;8.528;2022-09-03T14:18:12;25.20;63.00
4578;DHT22;2301;47.354;8.528;2022-09-03T14:20:46;25.20;62.60
4578;DHT22;2301;47.354;8.528;2022-09-03T14:23:28;25.30;63.10
4578;DHT22;2301;47.354;8.528;2022-09-03T14:26:00;25.30;62.40
4578;DHT22;2301;47.354;8.528;2022-09-03T14:28:32;25.30;62.40
4578;DHT22;2301;47.354;8.528;2022-09-03T14:31:09;25.40;62.90
4578;DHT22;2301;47.354;8.528;2022-09-03T14:33:45;25.40;62.10
4578;DHT22;2301;47.354;8.528;2022-09-03T14:36:20;25.30;62.00
4578;DHT22;2301;47.354;8.528;2022-09-03T14:41:53;25.20;62.20
4578;DHT22;2301;47.354;8.528;2022-09-03T14:47:54;25.30;62.80
4578;DHT22;2301;47.354;8.528;2022-09-03T14:50:37;25.40;62.60
4578;DHT22;2301;47.354;8.528;2022-09-03T14:53:21;25.50;61.90
4578;DHT22;2301;47.354;8.528;2022-09-03T14:56:03;25.60;61.70
4578;DHT22;2301;47.354;8.528;2022-09-03T14:58:42;25.60;61.00
4578;DHT22;2301;47.354;8.528;2022-09-03T15:01:15;25.70;60.70
4578;DHT22;2301;47.354;8.528;2022-09-03T15:04:11;25.70;60.70
4578;DHT22;2301;47.354;8.528;2022-09-03T15:06:51;25.80;61.10
4578;DHT22;2301;47.354;8.528;2022-09-03T15:09:27;25.90;60.10
4578;DHT22;2301;47.354;8.528;2022-09-03T15:12:00;25.90;60.10
4578;DHT22;2301;47.354;8.528;2022-09-03T15:14:34;25.90;59.60
4578;DHT22;2301;47.354;8.528;2022-09-03T15:17:21;26.00;58.70
4578;DHT22;2301;47.354;8.528;2022-09-03T15:20:06;26.00;58.50
4578;DHT22;2301;47.354;8.528;2022-09-03T15:22:53;26.00;58.80
4578;DHT22;2301;47.354;8.528;2022-09-03T15:25:27;26.00;58.30
4578;DHT22;2301;47.354;8.528;2022-09-03T15:28:06;26.00;58.50
4578;DHT22;2301;47.354;8.528;2022-09-03T15:30:41;26.00;57.70
4578;DHT22;2301;47.354;8.528;2022-09-03T15:33:18;26.10;57.70
4578;DHT22;2301;47.354;8.528;2022-09-03T15:38:48;26.10;58.30
4578;DHT22;2301;47.354;8.528;2022-09-03T15:41:40;26.00;58.90
4578;DHT22;2301;47.354;8.528;2022-09-03T15:44:11;26.00;59.30
4578;DHT22;2301;47.354;8.528;2022-09-03T15:46:52;25.90;58.40
4578;DHT22;2301;47.354;8.528;2022-09-03T15:49:42;25.80;58.50
4578;DHT22;2301;47.354;8.528;2022-09-03T15:52:28;25.70;57.70
4578;DHT22;2301;47.354;8.528;2022-09-03T15:55:05;25.60;58.40
4578;DHT22;2301;47.354;8.528;2022-09-03T15:57:39;25.50;58.80
4578;DHT22;2301;47.354;8.528;2022-09-03T16:00:10;25.40;58.70
4578;DHT22;2301;47.354;8.528;2022-09-03T16:02:42;25.30;59.50
4578;DHT22;2301;47.354;8.528;2022-09-03T16:05:15;25.20;59.60
4578;DHT22;2301;47.354;8.528;2022-09-03T16:08:05;25.10;59.70
4578;DHT22;2301;47.354;8.528;2022-09-03T16:10:40;25.00;60.40
4578;DHT22;2301;47.354;8.528;2022-09-03T16:16:13;24.80;60.80
4578;DHT22;2301;47.354;8.528;2022-09-03T16:18:43;24.70;61.30
4578;DHT22;2301;47.354;8.528;2022-09-03T16:21:21;24.70;61.60
4578;DHT22;2301;47.354;8.528;2022-09-03T16:23:55;24.60;61.60
4578;DHT22;2301;47.354;8.528;2022-09-03T16:26:28;24.60;61.60
4578;DHT22;2301;47.354;8.528;2022-09-03T16:29:00;24.50;62.40
4578;DHT22;2301;47.354;8.528;2022-09-03T16:31:41;24.40;62.60
4578;DHT22;2301;47.354;8.528;2022-09-03T16:34:18;24.40;63.60
4578;DHT22;2301;47.354;8.528;2022-09-03T16:36:53;24.30;63.90
4578;DHT22;2301;47.354;8.528;2022-09-03T16:39:36;24.30;64.40
4578;DHT22;2301;47.354;8.528;2022-09-03T16:42:11;24.30;64.90
4578;DHT22;2301;47.354;8.528;2022-09-03T16:44:48;24.20;65.50
4578;DHT22;2301;47.354;8.528;2022-09-03T16:47:29;24.20;65.70
4578;DHT22;2301;47.354;8.528;2022-09-03T16:50:07;24.20;65.80